N7755T KACY-K23N
Flight info
| Callsign | N7755T |
|---|---|
| Flight time | N/A |
| Altitude | 3000 |
| Route | 394542N0740650W 404026N0730318W |
| Aircraft | C172/L-SFG/C |
Departure
| Time | 2026-04-20 09:00 |
|---|---|
| Airport | Atlantic City International Airport (KACY) |
Arrival
| Time | N/A |
|---|---|
| Airport | K23N |
| Time | Latitude | Longitude | Altitude | Speed | Heading |
|---|---|---|---|---|---|
| 2026-04-20 08:38 | 39.44992 | -74.56489 | 74 ft | 0 kts | 207° |
| 2026-04-20 08:55 | 39.44989 | -74.56491 | 74 ft | 2 kts | 199° |
| 2026-04-20 08:56 | 39.44978 | -74.56467 | 65 ft | 6 kts | 64° |
| 2026-04-20 08:56 | 39.44990 | -74.56404 | 74 ft | 9 kts | 101° |
| 2026-04-20 08:56 | 39.44957 | -74.56321 | 60 ft | 12 kts | 117° |
| 2026-04-20 08:56 | 39.44921 | -74.56229 | 71 ft | 10 kts | 107° |
| 2026-04-20 08:57 | 39.44944 | -74.56177 | 72 ft | 8 kts | 34° |
| 2026-04-20 08:57 | 39.45000 | -74.56134 | 72 ft | 9 kts | 27° |
| 2026-04-20 08:57 | 39.45043 | -74.56095 | 73 ft | 7 kts | 52° |
| 2026-04-20 08:57 | 39.45069 | -74.56062 | 70 ft | 0 kts | 30° |
| 2026-04-20 08:59 | 39.45071 | -74.56061 | 74 ft | 2 kts | 30° |
| 2026-04-20 08:59 | 39.45122 | -74.56024 | 69 ft | 11 kts | 27° |
| 2026-04-20 08:59 | 39.45192 | -74.56113 | 73 ft | 34 kts | 299° |
| 2026-04-20 08:59 | 39.45398 | -74.56612 | 93 ft | 84 kts | 298° |
| 2026-04-20 09:00 | 39.45685 | -74.57312 | 350 ft | 88 kts | 298° |
| 2026-04-20 09:00 | 39.45985 | -74.58000 | 629 ft | 87 kts | 302° |
| 2026-04-20 09:00 | 39.46341 | -74.58668 | 819 ft | 96 kts | 317° |
| 2026-04-20 09:00 | 39.46982 | -74.58874 | 1040 ft | 103 kts | 15° |
| 2026-04-20 09:01 | 39.47468 | -74.58185 | 1092 ft | 113 kts | 76° |
| 2026-04-20 09:01 | 39.47315 | -74.57204 | 1085 ft | 115 kts | 122° |
| 2026-04-20 09:01 | 39.46936 | -74.56287 | 1074 ft | 116 kts | 113° |
| 2026-04-20 09:01 | 39.46844 | -74.55248 | 1089 ft | 118 kts | 83° |
| 2026-04-20 09:02 | 39.47074 | -74.54223 | 1076 ft | 119 kts | 72° |
| 2026-04-20 09:02 | 39.47304 | -74.53214 | 1120 ft | 117 kts | 74° |
| 2026-04-20 09:02 | 39.47567 | -74.52255 | 1292 ft | 109 kts | 66° |
| 2026-04-20 09:02 | 39.47958 | -74.51394 | 1318 ft | 112 kts | 55° |
| 2026-04-20 09:03 | 39.48440 | -74.50599 | 1358 ft | 114 kts | 46° |
| 2026-04-20 09:03 | 39.48993 | -74.49822 | 1322 ft | 119 kts | 47° |
| 2026-04-20 09:03 | 39.49542 | -74.49012 | 1341 ft | 120 kts | 48° |
| 2026-04-20 09:03 | 39.50095 | -74.48182 | 1354 ft | 120 kts | 48° |
| 2026-04-20 09:04 | 39.50624 | -74.47367 | 1340 ft | 117 kts | 49° |
| 2026-04-20 09:04 | 39.51132 | -74.46581 | 1346 ft | 115 kts | 50° |
| 2026-04-20 09:04 | 39.51607 | -74.45753 | 1341 ft | 114 kts | 54° |
| 2026-04-20 09:04 | 39.52068 | -74.44891 | 1281 ft | 118 kts | 56° |
| 2026-04-20 09:05 | 39.52505 | -74.44008 | 1316 ft | 115 kts | 59° |
| 2026-04-20 09:05 | 39.52928 | -74.43156 | 1350 ft | 113 kts | 53° |
| 2026-04-20 09:05 | 39.53399 | -74.42334 | 1363 ft | 114 kts | 51° |
| 2026-04-20 09:05 | 39.53941 | -74.41567 | 1360 ft | 116 kts | 46° |
| 2026-04-20 09:06 | 39.54474 | -74.40786 | 1365 ft | 116 kts | 48° |
| 2026-04-20 09:06 | 39.55014 | -74.40018 | 1353 ft | 116 kts | 48° |
| 2026-04-20 09:06 | 39.55575 | -74.39257 | 1352 ft | 117 kts | 44° |
| 2026-04-20 09:06 | 39.56148 | -74.38510 | 1351 ft | 116 kts | 44° |
| 2026-04-20 09:07 | 39.56718 | -74.37766 | 1354 ft | 116 kts | 44° |
| 2026-04-20 09:07 | 39.57294 | -74.37017 | 1356 ft | 117 kts | 44° |
| 2026-04-20 09:07 | 39.57875 | -74.36264 | 1358 ft | 119 kts | 44° |
| 2026-04-20 09:07 | 39.58450 | -74.35518 | 1353 ft | 117 kts | 44° |
| 2026-04-20 09:08 | 39.59026 | -74.34780 | 1351 ft | 116 kts | 44° |
| 2026-04-20 09:08 | 39.59600 | -74.34051 | 1350 ft | 115 kts | 44° |
| 2026-04-20 09:08 | 39.60172 | -74.33319 | 1349 ft | 115 kts | 44° |
| 2026-04-20 09:08 | 39.60742 | -74.32596 | 1347 ft | 114 kts | 44° |
| 2026-04-20 09:09 | 39.61303 | -74.31884 | 1347 ft | 113 kts | 43° |
| 2026-04-20 09:09 | 39.61866 | -74.31170 | 1346 ft | 113 kts | 44° |
| 2026-04-20 09:09 | 39.62429 | -74.30458 | 1350 ft | 114 kts | 44° |
| 2026-04-20 09:09 | 39.63001 | -74.29736 | 1349 ft | 115 kts | 43° |
| 2026-04-20 09:10 | 39.63570 | -74.29017 | 1346 ft | 114 kts | 44° |
| 2026-04-20 09:10 | 39.64137 | -74.28303 | 1350 ft | 113 kts | 43° |
| 2026-04-20 09:10 | 39.64703 | -74.27587 | 1348 ft | 113 kts | 43° |
| 2026-04-20 09:10 | 39.65261 | -74.26882 | 1349 ft | 113 kts | 43° |
| 2026-04-20 09:11 | 39.65826 | -74.26168 | 1352 ft | 114 kts | 43° |
| 2026-04-20 09:11 | 39.66399 | -74.25446 | 1355 ft | 114 kts | 43° |
| 2026-04-20 09:11 | 39.66970 | -74.24730 | 1350 ft | 113 kts | 43° |
| 2026-04-20 09:11 | 39.67538 | -74.24017 | 1356 ft | 115 kts | 43° |
| 2026-04-20 09:12 | 39.68112 | -74.23297 | 1351 ft | 115 kts | 43° |
| 2026-04-20 09:12 | 39.68687 | -74.22578 | 1348 ft | 114 kts | 43° |
| 2026-04-20 09:12 | 39.69064 | -74.22105 | 1347 ft | 114 kts | 43° |
| 2026-04-20 09:12 | 39.69632 | -74.21394 | 1342 ft | 113 kts | 43° |
| 2026-04-20 09:13 | 39.70203 | -74.20682 | 1344 ft | 114 kts | 43° |
| 2026-04-20 09:13 | 39.70760 | -74.19947 | 1346 ft | 114 kts | 45° |
| 2026-04-20 09:13 | 39.71290 | -74.19199 | 1345 ft | 114 kts | 47° |
| 2026-04-20 09:13 | 39.71824 | -74.18437 | 1345 ft | 114 kts | 47° |
| 2026-04-20 09:14 | 39.72359 | -74.17672 | 1345 ft | 115 kts | 47° |
| 2026-04-20 09:14 | 39.72894 | -74.16904 | 1344 ft | 115 kts | 47° |
| 2026-04-20 09:14 | 39.73429 | -74.16140 | 1343 ft | 114 kts | 47° |
| 2026-04-20 09:14 | 39.73958 | -74.15387 | 1343 ft | 113 kts | 47° |
| 2026-04-20 09:15 | 39.74489 | -74.14630 | 1343 ft | 113 kts | 47° |
| 2026-04-20 09:15 | 39.75019 | -74.13874 | 1344 ft | 113 kts | 47° |
| 2026-04-20 09:15 | 39.75547 | -74.13120 | 1343 ft | 113 kts | 47° |
| 2026-04-20 09:15 | 39.76073 | -74.12370 | 1344 ft | 113 kts | 46° |
| 2026-04-20 09:16 | 39.76610 | -74.11610 | 1346 ft | 114 kts | 47° |
| 2026-04-20 09:16 | 39.77141 | -74.10854 | 1348 ft | 113 kts | 47° |
| 2026-04-20 09:16 | 39.77672 | -74.10100 | 1351 ft | 114 kts | 46° |
| 2026-04-20 09:16 | 39.78213 | -74.09338 | 1355 ft | 115 kts | 46° |
| 2026-04-20 09:17 | 39.78759 | -74.08567 | 1348 ft | 116 kts | 47° |
| 2026-04-20 09:17 | 39.79302 | -74.07801 | 1346 ft | 115 kts | 46° |
| 2026-04-20 09:17 | 39.79848 | -74.07032 | 1342 ft | 116 kts | 46° |
| 2026-04-20 09:17 | 39.80392 | -74.06267 | 1350 ft | 115 kts | 47° |
| 2026-04-20 09:18 | 39.80928 | -74.05510 | 1337 ft | 112 kts | 47° |
| 2026-04-20 09:18 | 39.81475 | -74.04774 | 1335 ft | 113 kts | 44° |
| 2026-04-20 09:18 | 39.82035 | -74.04052 | 1336 ft | 114 kts | 44° |
| 2026-04-20 09:18 | 39.82595 | -74.03340 | 1336 ft | 114 kts | 43° |
| 2026-04-20 09:19 | 39.83181 | -74.02637 | 1339 ft | 114 kts | 42° |
| 2026-04-20 09:19 | 39.83764 | -74.01930 | 1338 ft | 115 kts | 43° |
| 2026-04-20 09:19 | 39.84350 | -74.01222 | 1338 ft | 114 kts | 42° |
| 2026-04-20 09:19 | 39.84930 | -74.00523 | 1336 ft | 113 kts | 42° |
| 2026-04-20 09:20 | 39.85513 | -73.99825 | 1334 ft | 114 kts | 42° |
| 2026-04-20 09:20 | 39.86096 | -73.99140 | 1335 ft | 114 kts | 42° |
| 2026-04-20 09:20 | 39.86686 | -73.98445 | 1335 ft | 114 kts | 42° |
| 2026-04-20 09:20 | 39.87291 | -73.97769 | 1336 ft | 115 kts | 40° |
| 2026-04-20 09:21 | 39.87899 | -73.97100 | 1338 ft | 114 kts | 40° |
| 2026-04-20 09:21 | 39.88508 | -73.96431 | 1336 ft | 114 kts | 40° |
| 2026-04-20 09:21 | 39.89111 | -73.95765 | 1335 ft | 113 kts | 40° |
| 2026-04-20 09:21 | 39.89711 | -73.95107 | 1337 ft | 114 kts | 40° |
| 2026-04-20 09:22 | 39.90322 | -73.94437 | 1334 ft | 114 kts | 40° |
| 2026-04-20 09:22 | 39.90933 | -73.93770 | 1334 ft | 114 kts | 40° |
| 2026-04-20 09:22 | 39.91544 | -73.93100 | 1333 ft | 115 kts | 40° |
| 2026-04-20 09:22 | 39.92154 | -73.92433 | 1333 ft | 114 kts | 40° |
| 2026-04-20 09:23 | 39.92754 | -73.91779 | 1334 ft | 113 kts | 40° |
| 2026-04-20 09:23 | 39.93358 | -73.91121 | 1331 ft | 113 kts | 40° |
| 2026-04-20 09:23 | 39.93965 | -73.90461 | 1333 ft | 114 kts | 40° |
| 2026-04-20 09:23 | 39.94575 | -73.89799 | 1334 ft | 114 kts | 40° |
| 2026-04-20 09:24 | 39.95177 | -73.89150 | 1332 ft | 114 kts | 40° |
| 2026-04-20 09:24 | 39.95792 | -73.88482 | 1327 ft | 115 kts | 40° |
| 2026-04-20 09:24 | 39.96406 | -73.87815 | 1327 ft | 114 kts | 40° |
| 2026-04-20 09:24 | 39.97014 | -73.87157 | 1326 ft | 113 kts | 40° |
| 2026-04-20 09:25 | 39.97623 | -73.86499 | 1325 ft | 113 kts | 40° |
| 2026-04-20 09:25 | 39.98224 | -73.85851 | 1325 ft | 114 kts | 40° |
| 2026-04-20 09:25 | 39.98834 | -73.85191 | 1326 ft | 114 kts | 39° |
| 2026-04-20 09:25 | 39.99446 | -73.84528 | 1329 ft | 114 kts | 40° |
| 2026-04-20 09:26 | 40.00064 | -73.83878 | 1330 ft | 114 kts | 40° |
| 2026-04-20 09:26 | 40.00685 | -73.83230 | 1329 ft | 114 kts | 40° |
| 2026-04-20 09:26 | 40.01309 | -73.82583 | 1331 ft | 115 kts | 39° |
| 2026-04-20 09:26 | 40.01937 | -73.81931 | 1332 ft | 116 kts | 39° |
| 2026-04-20 09:27 | 40.02564 | -73.81280 | 1329 ft | 115 kts | 39° |
| 2026-04-20 09:27 | 40.03190 | -73.80632 | 1328 ft | 115 kts | 39° |
| 2026-04-20 09:27 | 40.03809 | -73.79990 | 1329 ft | 114 kts | 40° |
| 2026-04-20 09:27 | 40.04433 | -73.79344 | 1329 ft | 114 kts | 40° |
| 2026-04-20 09:28 | 40.05056 | -73.78702 | 1331 ft | 114 kts | 40° |
| 2026-04-20 09:28 | 40.05681 | -73.78056 | 1331 ft | 115 kts | 39° |
| 2026-04-20 09:28 | 40.06302 | -73.77416 | 1332 ft | 115 kts | 39° |
| 2026-04-20 09:28 | 40.06932 | -73.76763 | 1332 ft | 115 kts | 39° |
| 2026-04-20 09:29 | 40.07561 | -73.76115 | 1330 ft | 115 kts | 39° |
| 2026-04-20 09:29 | 40.08187 | -73.75469 | 1329 ft | 114 kts | 39° |
| 2026-04-20 09:29 | 40.08814 | -73.74824 | 1329 ft | 114 kts | 39° |
| 2026-04-20 09:29 | 40.09441 | -73.74184 | 1329 ft | 114 kts | 39° |
| 2026-04-20 09:30 | 40.10061 | -73.73548 | 1327 ft | 115 kts | 39° |
| 2026-04-20 09:30 | 40.10693 | -73.72904 | 1331 ft | 115 kts | 39° |
| 2026-04-20 09:30 | 40.11327 | -73.72254 | 1331 ft | 115 kts | 39° |
| 2026-04-20 09:30 | 40.11958 | -73.71608 | 1330 ft | 115 kts | 39° |
| 2026-04-20 09:31 | 40.12580 | -73.70968 | 1333 ft | 115 kts | 39° |
| 2026-04-20 09:31 | 40.13210 | -73.70323 | 1333 ft | 116 kts | 39° |
| 2026-04-20 09:31 | 40.13843 | -73.69679 | 1334 ft | 115 kts | 39° |
| 2026-04-20 09:31 | 40.14457 | -73.68996 | 1336 ft | 115 kts | 42° |
| 2026-04-20 09:32 | 40.15065 | -73.68309 | 1333 ft | 115 kts | 42° |
| 2026-04-20 09:32 | 40.15664 | -73.67630 | 1331 ft | 115 kts | 42° |
| 2026-04-20 09:32 | 40.16268 | -73.66947 | 1331 ft | 114 kts | 42° |
| 2026-04-20 09:32 | 40.16870 | -73.66270 | 1332 ft | 114 kts | 42° |
| 2026-04-20 09:33 | 40.17470 | -73.65597 | 1336 ft | 115 kts | 42° |
| 2026-04-20 09:33 | 40.18078 | -73.64914 | 1336 ft | 115 kts | 42° |
| 2026-04-20 09:33 | 40.18682 | -73.64231 | 1336 ft | 114 kts | 42° |
| 2026-04-20 09:33 | 40.19266 | -73.63546 | 1335 ft | 114 kts | 47° |
| 2026-04-20 09:34 | 40.19799 | -73.62779 | 1337 ft | 114 kts | 49° |
| 2026-04-20 09:34 | 40.20336 | -73.62011 | 1336 ft | 114 kts | 49° |
| 2026-04-20 09:34 | 40.21402 | -73.60488 | 1336 ft | 114 kts | 49° |
| 2026-04-20 09:35 | 40.21936 | -73.59727 | 1331 ft | 113 kts | 49° |
| 2026-04-20 09:35 | 40.22470 | -73.58966 | 1331 ft | 114 kts | 49° |
| 2026-04-20 09:35 | 40.23005 | -73.58202 | 1331 ft | 113 kts | 49° |
| 2026-04-20 09:35 | 40.23539 | -73.57443 | 1331 ft | 113 kts | 49° |
| 2026-04-20 09:36 | 40.24073 | -73.56682 | 1334 ft | 113 kts | 49° |
| 2026-04-20 09:36 | 40.24603 | -73.55930 | 1334 ft | 113 kts | 49° |
| 2026-04-20 09:36 | 40.25143 | -73.55168 | 1337 ft | 114 kts | 49° |
| 2026-04-20 09:36 | 40.25680 | -73.54408 | 1338 ft | 114 kts | 49° |
| 2026-04-20 09:37 | 40.26219 | -73.53644 | 1334 ft | 114 kts | 49° |
| 2026-04-20 09:37 | 40.26750 | -73.52891 | 1334 ft | 114 kts | 49° |
| 2026-04-20 09:37 | 40.27288 | -73.52129 | 1332 ft | 113 kts | 48° |
| 2026-04-20 09:37 | 40.27826 | -73.51369 | 1333 ft | 113 kts | 48° |
| 2026-04-20 09:38 | 40.28363 | -73.50611 | 1336 ft | 114 kts | 49° |
| 2026-04-20 09:38 | 40.28902 | -73.49852 | 1335 ft | 114 kts | 49° |
| 2026-04-20 09:38 | 40.29434 | -73.49102 | 1335 ft | 114 kts | 48° |
| 2026-04-20 09:38 | 40.29973 | -73.48341 | 1334 ft | 113 kts | 48° |
| 2026-04-20 09:39 | 40.30511 | -73.47583 | 1334 ft | 113 kts | 48° |
| 2026-04-20 09:39 | 40.31042 | -73.46835 | 1333 ft | 113 kts | 49° |
| 2026-04-20 09:39 | 40.31582 | -73.46078 | 1333 ft | 114 kts | 48° |
| 2026-04-20 09:39 | 40.32123 | -73.45321 | 1333 ft | 114 kts | 48° |
| 2026-04-20 09:40 | 40.32665 | -73.44568 | 1333 ft | 113 kts | 47° |
| 2026-04-20 09:40 | 40.33224 | -73.43838 | 1333 ft | 113 kts | 46° |
| 2026-04-20 09:40 | 40.33783 | -73.43107 | 1333 ft | 113 kts | 46° |
| 2026-04-20 09:40 | 40.34343 | -73.42377 | 1334 ft | 113 kts | 46° |
| 2026-04-20 09:41 | 40.34905 | -73.41646 | 1333 ft | 114 kts | 46° |
| 2026-04-20 09:41 | 40.35462 | -73.40921 | 1333 ft | 114 kts | 46° |
| 2026-04-20 09:41 | 40.36023 | -73.40185 | 1339 ft | 114 kts | 46° |
| 2026-04-20 09:41 | 40.36575 | -73.39432 | 1338 ft | 115 kts | 46° |
| 2026-04-20 09:42 | 40.37125 | -73.38679 | 1338 ft | 114 kts | 46° |
| 2026-04-20 09:42 | 40.37676 | -73.37928 | 1337 ft | 114 kts | 46° |
| 2026-04-20 09:42 | 40.38228 | -73.37177 | 1337 ft | 114 kts | 46° |
| 2026-04-20 09:42 | 40.38781 | -73.36425 | 1336 ft | 115 kts | 46° |
| 2026-04-20 09:43 | 40.39332 | -73.35680 | 1337 ft | 114 kts | 46° |
| 2026-04-20 09:43 | 40.39888 | -73.34928 | 1336 ft | 115 kts | 46° |
| 2026-04-20 09:43 | 40.40443 | -73.34173 | 1334 ft | 115 kts | 45° |
| 2026-04-20 09:43 | 40.40996 | -73.33420 | 1334 ft | 114 kts | 46° |
| 2026-04-20 09:44 | 40.41541 | -73.32679 | 1332 ft | 114 kts | 46° |
| 2026-04-20 09:44 | 40.42098 | -73.31930 | 1332 ft | 114 kts | 46° |
| 2026-04-20 09:44 | 40.42656 | -73.31181 | 1332 ft | 115 kts | 46° |
| 2026-04-20 09:44 | 40.43216 | -73.30430 | 1332 ft | 115 kts | 46° |
| 2026-04-20 09:45 | 40.43792 | -73.29707 | 1333 ft | 114 kts | 42° |
| 2026-04-20 09:45 | 40.44366 | -73.28997 | 1332 ft | 113 kts | 42° |
| 2026-04-20 09:45 | 40.44929 | -73.28294 | 1331 ft | 113 kts | 42° |
| 2026-04-20 09:45 | 40.45510 | -73.27596 | 1332 ft | 113 kts | 39° |
| 2026-04-20 09:46 | 40.46110 | -73.26923 | 1332 ft | 113 kts | 39° |
| 2026-04-20 09:46 | 40.46711 | -73.26253 | 1331 ft | 113 kts | 39° |
| 2026-04-20 09:46 | 40.47311 | -73.25581 | 1329 ft | 113 kts | 39° |
| 2026-04-20 09:46 | 40.47908 | -73.24905 | 1334 ft | 113 kts | 40° |
| 2026-04-20 09:47 | 40.48499 | -73.24242 | 1334 ft | 113 kts | 40° |
| 2026-04-20 09:47 | 40.49099 | -73.23575 | 1333 ft | 113 kts | 39° |
| 2026-04-20 09:47 | 40.49701 | -73.22914 | 1333 ft | 113 kts | 37° |
| 2026-04-20 09:47 | 40.50321 | -73.22270 | 1333 ft | 113 kts | 38° |
| 2026-04-20 09:48 | 40.50938 | -73.21629 | 1333 ft | 113 kts | 38° |
| 2026-04-20 09:48 | 40.51553 | -73.21000 | 1333 ft | 113 kts | 36° |
| 2026-04-20 09:48 | 40.52185 | -73.20388 | 1331 ft | 113 kts | 35° |
| 2026-04-20 09:48 | 40.52817 | -73.19773 | 1332 ft | 113 kts | 36° |
| 2026-04-20 09:49 | 40.53452 | -73.19161 | 1335 ft | 112 kts | 36° |
| 2026-04-20 09:49 | 40.54083 | -73.18551 | 1341 ft | 113 kts | 35° |
| 2026-04-20 09:49 | 40.54705 | -73.17933 | 1341 ft | 113 kts | 35° |
| 2026-04-20 09:49 | 40.55333 | -73.17306 | 1340 ft | 113 kts | 35° |
| 2026-04-20 09:50 | 40.55956 | -73.16684 | 1338 ft | 112 kts | 35° |
| 2026-04-20 09:50 | 40.56581 | -73.16062 | 1338 ft | 112 kts | 35° |
| 2026-04-20 09:50 | 40.57204 | -73.15437 | 1339 ft | 113 kts | 35° |
| 2026-04-20 09:50 | 40.57827 | -73.14818 | 1339 ft | 113 kts | 35° |
| 2026-04-20 09:51 | 40.58460 | -73.14191 | 1342 ft | 114 kts | 35° |
| 2026-04-20 09:51 | 40.59095 | -73.13566 | 1340 ft | 113 kts | 35° |
| 2026-04-20 09:51 | 40.59724 | -73.12944 | 1340 ft | 113 kts | 35° |
| 2026-04-20 09:51 | 40.60342 | -73.12329 | 1339 ft | 113 kts | 35° |
| 2026-04-20 09:52 | 40.60974 | -73.11705 | 1338 ft | 113 kts | 35° |
| 2026-04-20 09:52 | 40.61598 | -73.11089 | 1339 ft | 113 kts | 35° |
| 2026-04-20 09:52 | 40.62231 | -73.10466 | 1338 ft | 113 kts | 35° |
| 2026-04-20 09:52 | 40.62863 | -73.09844 | 1339 ft | 113 kts | 35° |
| 2026-04-20 09:53 | 40.63495 | -73.09223 | 1338 ft | 113 kts | 35° |
| 2026-04-20 09:53 | 40.64127 | -73.08605 | 1336 ft | 113 kts | 35° |
| 2026-04-20 09:53 | 40.64753 | -73.08000 | 1334 ft | 113 kts | 34° |
| 2026-04-20 09:53 | 40.65397 | -73.07410 | 1286 ft | 112 kts | 28° |
| 2026-04-20 09:54 | 40.66112 | -73.06978 | 1127 ft | 114 kts | 19° |
| 2026-04-20 09:54 | 40.66854 | -73.06645 | 997 ft | 112 kts | 13° |
| 2026-04-20 09:54 | 40.67625 | -73.06442 | 800 ft | 113 kts | 8° |
| 2026-04-20 09:54 | 40.68381 | -73.06249 | 703 ft | 108 kts | 9° |
| 2026-04-20 09:55 | 40.69122 | -73.06107 | 566 ft | 109 kts | 0° |
| 2026-04-20 09:55 | 40.69881 | -73.06154 | 473 ft | 106 kts | 357° |
| 2026-04-20 09:55 | 40.70575 | -73.06188 | 480 ft | 96 kts | 353° |
| 2026-04-20 09:55 | 40.71223 | -73.06342 | 453 ft | 92 kts | 346° |
| 2026-04-20 09:56 | 40.71839 | -73.06535 | 419 ft | 90 kts | 344° |
| 2026-04-20 09:56 | 40.72418 | -73.06700 | 411 ft | 82 kts | 348° |
| 2026-04-20 09:56 | 40.72942 | -73.06485 | 342 ft | 83 kts | 47° |
| 2026-04-20 09:56 | 40.73334 | -73.05944 | 293 ft | 83 kts | 25° |
| 2026-04-20 09:57 | 40.73901 | -73.06013 | 254 ft | 84 kts | 340° |
| 2026-04-20 09:57 | 40.74463 | -73.06098 | 295 ft | 79 kts | 356° |
| 2026-04-20 09:57 | 40.75023 | -73.06192 | 387 ft | 89 kts | 327° |
| 2026-04-20 09:57 | 40.75250 | -73.06950 | 472 ft | 99 kts | 251° |
| 2026-04-20 09:58 | 40.74743 | -73.07525 | 559 ft | 98 kts | 194° |
| 2026-04-20 09:58 | 40.74078 | -73.07513 | 544 ft | 95 kts | 179° |
| 2026-04-20 09:58 | 40.73411 | -73.07434 | 455 ft | 99 kts | 172° |
| 2026-04-20 09:58 | 40.72765 | -73.07168 | 438 ft | 96 kts | 149° |
| 2026-04-20 09:59 | 40.72509 | -73.06440 | 493 ft | 96 kts | 79° |
| 2026-04-20 09:59 | 40.72940 | -73.05774 | 481 ft | 101 kts | 26° |
| 2026-04-20 09:59 | 40.73539 | -73.05397 | 468 ft | 88 kts | 24° |
| 2026-04-20 09:59 | 40.74053 | -73.05145 | 390 ft | 72 kts | 11° |
| 2026-04-20 10:00 | 40.74528 | -73.05090 | 277 ft | 66 kts | 356° |
| 2026-04-20 10:00 | 40.74988 | -73.05153 | 166 ft | 67 kts | 353° |
| 2026-04-20 10:00 | 40.75441 | -73.05232 | 68 ft | 66 kts | 352° |
| 2026-04-20 10:00 | 40.75798 | -73.05292 | 39 ft | 31 kts | 353° |
| 2026-04-20 10:01 | 40.75899 | -73.05306 | 37 ft | 13 kts | 352° |
| 2026-04-20 10:01 | 40.75884 | -73.05348 | 38 ft | 10 kts | 177° |
| 2026-04-20 10:01 | 40.75823 | -73.05345 | 38 ft | 16 kts | 178° |
| 2026-04-20 10:01 | 40.75725 | -73.05337 | 39 ft | 11 kts | 184° |
| 2026-04-20 10:02 | 40.75689 | -73.05358 | 38 ft | 0 kts | 220° |